ΕΜΥ, Εθνική Μετεωρολογική Υπηρεσία - Δελτία Καιρού, Προγνώσεις

ΑΕΡΟΝΑΥΤΙΛΙΑ

GREEK AIRPORTS CODES

LGIK 191600Z AUTO 34017KT //// -RA ////// 10/M00 Q1021 RE// RMK 0.0MM=

EUROPEAN AIRPORTS CODES

LFPO 191600Z 03012KT 9999 BKN033 07/01 Q1041 NOSIG=